Time;durP1;ratioP1;P1;durP2;ratioP2;P2;SDS_P1;SDS_P2;PMS_P1;PMS_P2;Temp;Humidity;BMP_temperature;BMP_pressure;BME280_temperature;BME280_humidity;BME280_pressure;Samples;Min_cycle;Max_cycle;Signal;HPM_P1;HPM_P2
2023/01/11 00:01:03;;;;;;;3.72;1.70;;;27.70;99.90;;;;;;5022849;28;20455;-60
2023/01/11 00:03:31;;;;;;;4.93;1.83;;;27.70;99.90;;;;;;5025138;28;20024;-70
2023/01/11 00:05:59;;;;;;;4.65;1.52;;;27.90;98.80;;;;;;5026062;28;20048;-59
2023/01/11 00:08:29;;;;;;;5.25;1.80;;;27.90;99.60;;;;;;5024686;28;20104;-68
2023/01/11 00:10:56;;;;;;;2.65;1.35;;;28.10;99.40;;;;;;5025028;28;20682;-69
2023/01/11 00:13:23;;;;;;;4.47;1.40;;;28.30;98.30;;;;;;5025044;28;20508;-69
2023/01/11 00:15:50;;;;;;;5.25;1.35;;;27.90;98.70;;;;;;5025324;28;20111;-59
2023/01/11 00:18:16;;;;;;;4.78;2.20;;;28.10;98.70;;;;;;5025238;28;20018;-62
2023/01/11 00:20:44;;;;;;;9.07;1.98;;;27.90;98.70;;;;;;5025434;28;20029;-60
2023/01/11 00:23:10;;;;;;;8.45;1.80;;;27.90;98.40;;;;;;5025379;28;20373;-60
2023/01/11 00:25:37;;;;;;;6.50;1.90;;;27.80;99.00;;;;;;5023881;28;20491;-60
2023/01/11 00:28:05;;;;;;;3.25;1.70;;;27.70;99.00;;;;;;5024510;28;20550;-61
2023/01/11 00:30:34;;;;;;;5.40;2.40;;;28.00;99.90;;;;;;5025027;28;20218;-62
2023/01/11 00:33:01;;;;;;;7.78;2.72;;;28.30;98.60;;;;;;5024388;28;20037;-61
2023/01/11 00:35:31;;;;;;;5.57;1.95;;;28.70;97.60;;;;;;5025341;28;20032;-61
2023/01/11 00:37:58;;;;;;;6.53;2.20;;;28.80;97.30;;;;;;5024589;28;20021;-62
2023/01/11 00:40:25;;;;;;;4.05;1.35;;;29.20;97.00;;;;;;5025426;28;20616;-61
2023/01/11 00:48:23;;;;;;;4.50;1.75;;;29.40;96.40;;;;;;5022839;28;20408;-63
2023/01/11 00:50:54;;;;;;;5.50;1.92;;;29.00;96.60;;;;;;5024378;28;20100;-65
2023/01/11 00:53:21;;;;;;;3.88;1.60;;;28.90;96.80;;;;;;5024637;28;20029;-69
2023/01/11 00:56:05;;;;;;;5.02;1.87;;;29.10;96.90;;;;;;4912265;28;10000762;-63
2023/01/11 00:58:32;;;;;;;8.30;3.70;;;29.40;97.20;;;;;;5022870;28;20232;-63
2023/01/11 01:01:06;;;;;;;3.53;1.70;;;29.90;95.60;;;;;;5020325;28;20022;-66
2023/01/11 01:03:33;;;;;;;6.18;1.77;;;30.20;96.60;;;;;;5021478;28;20028;-67
2023/01/11 01:06:00;;;;;;;6.70;1.70;;;30.70;96.20;;;;;;5020008;28;20026;-69
2023/01/11 01:08:27;;;;;;;6.95;1.80;;;31.00;94.50;;;;;;5020929;28;20040;-61
2023/01/11 01:10:54;;;;;;;4.50;2.05;;;31.50;93.50;;;;;;5021188;28;20098;-61
2023/01/11 01:16:06;;;;;;;4.00;1.80;;;32.40;92.00;;;;;;5020762;28;20629;-71
2023/01/11 01:18:33;;;;;;;6.60;1.50;;;31.80;93.10;;;;;;5018356;28;20045;-60
2023/01/11 01:21:00;;;;;;;4.82;1.75;;;31.50;93.30;;;;;;5016263;28;20036;-73
2023/01/11 01:23:27;;;;;;;4.65;1.58;;;31.30;92.30;;;;;;5012776;28;20521;-73
2023/01/11 01:25:54;;;;;;;3.90;1.83;;;30.90;93.00;;;;;;5019993;28;20025;-66
2023/01/11 01:28:21;;;;;;;2.78;1.55;;;30.30;93.60;;;;;;5020267;28;20026;-74
2023/01/11 01:30:51;;;;;;;6.60;1.48;;;30.00;93.70;;;;;;5051825;23;20049;-59
2023/01/11 01:33:18;;;;;;;6.18;1.90;;;29.90;95.00;;;;;;5019761;28;20487;-65
2023/01/11 01:35:45;;;;;;;4.18;1.95;;;30.00;94.30;;;;;;5019923;28;20032;-62
2023/01/11 01:38:11;;;;;;;2.97;1.60;;;30.00;94.20;;;;;;5021273;28;20433;-66
2023/01/11 01:40:43;;;;;;;4.38;1.63;;;30.00;94.00;;;;;;5020326;28;20017;-72
2023/01/11 01:43:16;;;;;;;4.57;1.52;;;29.90;94.90;;;;;;5021119;28;20436;-72
2023/01/11 01:45:43;;;;;;;5.43;2.03;;;30.00;94.70;;;;;;5020280;28;20077;-65
2023/01/11 01:48:14;;;;;;;3.08;1.58;;;30.10;94.50;;;;;;5021104;28;20392;-73
2023/01/11 01:50:55;;;;;;;6.97;2.65;;;30.00;94.80;;;;;;5022564;28;20494;-73
2023/01/11 01:53:44;;;;;;;6.05;2.05;;;29.80;94.90;;;;;;5020495;28;20110;-72
2023/01/11 01:56:23;;;;;;;2.80;1.58;;;29.60;95.10;;;;;;5020258;28;20076;-72
2023/01/11 01:59:07;;;;;;;4.28;1.77;;;29.80;95.10;;;;;;5018110;28;20105;-60
2023/01/11 02:01:46;;;;;;;5.78;2.20;;;29.60;95.20;;;;;;5021354;28;20027;-62
2023/01/11 02:04:23;;;;;;;2.47;1.70;;;29.60;94.10;;;;;;5020620;28;20036;-65
2023/01/11 02:07:08;;;;;;;3.90;2.10;;;29.50;95.70;;;;;;5018425;28;20559;-73
2023/01/11 02:09:44;;;;;;;3.92;1.65;;;29.50;95.10;;;;;;5019197;28;20463;-67
2023/01/11 02:12:13;;;;;;;5.75;1.70;;;29.20;95.20;;;;;;5020814;28;20432;-62
2023/01/11 02:14:42;;;;;;;5.63;2.10;;;28.80;96.30;;;;;;5014889;28;20547;-60
2023/01/11 02:17:09;;;;;;;5.53;1.77;;;28.50;97.40;;;;;;5017981;28;20034;-60
2023/01/11 02:20:05;;;;;;;6.03;2.80;;;28.20;97.60;;;;;;5022678;28;20036;-67
2023/01/11 02:22:38;;;;;;;4.30;1.88;;;28.30;97.90;;;;;;5018103;28;20065;-66
2023/01/11 02:25:25;;;;;;;5.78;2.83;;;28.50;97.60;;;;;;5021928;28;20013;-62
2023/01/11 02:27:55;;;;;;;3.85;1.85;;;28.50;97.10;;;;;;5022887;28;20117;-63
2023/01/11 02:30:40;;;;;;;4.03;1.83;;;28.60;96.70;;;;;;5020615;28;20033;-73
2023/01/11 02:33:36;;;;;;;4.40;2.05;;;28.50;97.50;;;;;;5024392;28;20427;-63
2023/01/11 02:36:24;;;;;;;8.85;2.25;;;28.80;96.90;;;;;;5023324;28;20065;-73
2023/01/11 02:39:11;;;;;;;5.72;1.90;;;29.10;97.30;;;;;;5023971;28;20025;-61
2023/01/11 02:45:00;;;;;;;3.40;2.03;;;29.70;96.00;;;;;;5021335;28;20091;-66
2023/01/11 02:47:55;;;;;;;3.25;1.65;;;29.80;95.80;;;;;;5022560;28;20180;-62
2023/01/11 02:50:31;;;;;;;4.45;2.05;;;30.20;95.30;;;;;;4982905;28;20041;-62
2023/01/11 02:53:16;;;;;;;6.38;1.70;;;29.90;94.90;;;;;;4966167;28;20110;-61
2023/01/11 02:55:48;;;;;;;7.75;2.22;;;30.00;95.30;;;;;;4982745;28;20034;-64
2023/01/11 02:58:18;;;;;;;6.00;1.98;;;30.10;95.10;;;;;;4980900;28;20031;-72
2023/01/11 03:00:47;;;;;;;7.68;1.90;;;30.40;95.20;;;;;;4969800;28;20062;-62
2023/01/11 03:03:15;;;;;;;7.32;1.88;;;31.20;95.30;;;;;;4980852;28;20033;-65
2023/01/11 03:06:02;;;;;;;3.00;1.70;;;32.30;94.10;;;;;;4976830;28;20089;-61
2023/01/11 03:08:34;;;;;;;4.85;2.13;;;33.00;93.60;;;;;;4977486;28;20041;-59
2023/01/11 03:12:50;;;;;;;6.82;1.80;;;33.60;93.60;;;;;;4981729;28;20054;-63
2023/01/11 03:14:12;;;;;;;4.07;1.60;;;34.00;92.60;;;;;;4981452;28;20081;-61
2023/01/11 03:16:45;;;;;;;5.15;2.20;;;33.90;91.30;;;;;;4968926;28;20266;-64
2023/01/11 03:19:28;;;;;;;7.65;2.30;;;33.20;91.90;;;;;;4984145;28;20515;-66
2023/01/11 03:22:29;;;;;;;4.88;1.63;;;32.80;91.70;;;;;;4980259;28;20112;-64
2023/01/11 03:25:15;;;;;;;4.43;2.20;;;32.40;92.50;;;;;;4980818;28;20593;-61
2023/01/11 03:27:45;;;;;;;6.75;2.25;;;32.50;91.70;;;;;;5004693;28;20037;-65
2023/01/11 03:30:23;;;;;;;5.88;3.80;;;32.00;92.20;;;;;;5023786;28;20029;-62
2023/01/11 03:33:15;;;;;;;7.07;2.92;;;31.60;92.20;;;;;;5021532;28;20033;-66
2023/01/11 03:36:10;;;;;;;8.00;2.50;;;30.70;92.60;;;;;;5017424;28;20426;-64
2023/01/11 03:39:09;;;;;;;7.85;2.53;;;30.50;93.00;;;;;;5019336;28;20092;-61
2023/01/11 03:41:40;;;;;;;4.28;1.85;;;30.80;94.20;;;;;;5000151;28;20451;-64
2023/01/11 03:44:11;;;;;;;4.45;2.20;;;30.90;93.40;;;;;;5001042;28;20014;-73
2023/01/11 03:46:46;;;;;;;5.95;2.00;;;30.80;93.00;;;;;;5001410;28;20045;-73
2023/01/11 03:49:19;;;;;;;4.95;1.83;;;30.60;93.70;;;;;;4995457;28;20042;-66
2023/01/11 03:51:48;;;;;;;5.28;1.98;;;30.60;92.90;;;;;;5000648;28;20049;-64
2023/01/11 03:54:20;;;;;;;4.85;1.85;;;30.80;93.00;;;;;;5001192;28;20042;-64
2023/01/11 03:57:03;;;;;;;4.57;2.20;;;30.90;92.40;;;;;;5000529;28;20053;-66
2023/01/11 03:59:30;;;;;;;3.30;1.70;;;30.50;93.90;;;;;;4998340;28;20034;-74
2023/01/11 04:01:57;;;;;;;4.85;1.70;;;30.50;93.90;;;;;;4998749;28;20029;-66
2023/01/11 04:04:24;;;;;;;5.38;2.00;;;30.60;94.20;;;;;;4997593;28;20037;-65
2023/01/11 04:06:51;;;;;;;5.30;1.73;;;31.20;93.30;;;;;;4996176;28;20134;-63
2023/01/11 04:09:18;;;;;;;4.82;2.17;;;32.20;93.50;;;;;;4990312;28;20094;-64
2023/01/11 04:11:45;;;;;;;5.68;2.03;;;32.20;93.00;;;;;;4999207;28;20571;-66
2023/01/11 04:14:12;;;;;;;4.32;2.10;;;32.20;92.40;;;;;;4989409;28;20037;-65
2023/01/11 04:16:39;;;;;;;4.57;1.90;;;31.80;92.40;;;;;;4996215;28;20213;-61
2023/01/11 04:19:06;;;;;;;2.85;1.75;;;31.30;92.60;;;;;;5015741;28;20083;-63
2023/01/11 04:21:33;;;;;;;4.80;2.13;;;31.40;92.80;;;;;;5022017;28;20495;-64
2023/01/11 04:24:00;;;;;;;4.57;1.75;;;31.40;92.20;;;;;;5017180;28;20118;-72
2023/01/11 04:26:27;;;;;;;4.88;1.85;;;31.80;92.40;;;;;;5014898;28;20033;-62
2023/01/11 04:28:54;;;;;;;5.43;1.85;;;32.20;92.00;;;;;;5019023;28;20037;-64
2023/01/11 04:31:21;;;;;;;2.88;1.60;;;32.80;91.80;;;;;;5014087;28;20057;-60
2023/01/11 04:33:48;;;;;;;5.55;1.80;;;33.20;91.50;;;;;;5018040;28;20119;-63
2023/01/11 04:36:14;;;;;;;2.67;1.80;;;32.60;90.90;;;;;;5017652;28;20335;-62
2023/01/11 04:38:41;;;;;;;4.28;1.80;;;31.90;92.10;;;;;;5017346;28;20028;-65
2023/01/11 04:43:56;;;;;;;5.22;1.70;;;32.70;91.50;;;;;;5020521;28;20040;-63
2023/01/11 04:46:24;;;;;;;4.25;1.73;;;33.30;91.40;;;;;;5021299;28;20029;-74
2023/01/11 04:48:52;;;;;;;3.45;1.90;;;32.80;90.70;;;;;;5020361;28;20037;-65
2023/01/11 04:51:18;;;;;;;4.15;1.90;;;32.10;91.90;;;;;;5017379;28;20057;-60
2023/01/11 04:53:48;;;;;;;3.70;2.10;;;31.90;91.70;;;;;;5018731;28;20048;-60
2023/01/11 04:56:15;;;;;;;7.43;2.35;;;31.50;91.20;;;;;;5019310;28;20042;-60
2023/01/11 04:58:45;;;;;;;8.30;2.00;;;31.00;91.90;;;;;;5015932;28;20068;-65
2023/01/11 05:01:16;;;;;;;4.35;2.00;;;30.70;93.10;;;;;;5019415;28;20373;-73
2023/01/11 05:03:44;;;;;;;3.97;2.00;;;30.60;92.20;;;;;;5020857;28;20027;-60
2023/01/11 05:06:12;;;;;;;5.30;2.20;;;30.30;92.00;;;;;;5022925;28;20029;-65
2023/01/11 05:08:39;;;;;;;5.93;1.75;;;30.10;92.50;;;;;;5017073;28;20029;-63
2023/01/11 05:11:07;;;;;;;5.78;1.90;;;30.10;92.50;;;;;;5023131;28;20029;-62
2023/01/11 05:13:40;;;;;;;3.38;2.00;;;30.60;92.60;;;;;;5023124;28;20021;-62
2023/01/11 05:16:19;;;;;;;3.95;2.13;;;30.60;92.10;;;;;;5019326;28;20400;-73
2023/01/11 05:18:52;;;;;;;5.40;2.08;;;30.40;92.80;;;;;;5020457;28;20455;-62
2023/01/11 05:21:22;;;;;;;4.78;2.17;;;30.30;92.90;;;;;;5018179;28;20695;-74
2023/01/11 05:23:49;;;;;;;3.58;2.28;;;30.00;93.80;;;;;;5019570;28;20028;-62
2023/01/11 05:26:23;;;;;;;7.57;2.05;;;30.80;94.20;;;;;;5018848;28;20756;-60
2023/01/11 05:28:51;;;;;;;6.30;2.38;;;31.50;92.00;;;;;;5016135;28;20127;-61
2023/01/11 05:31:18;;;;;;;3.33;1.85;;;31.40;92.70;;;;;;5017867;28;20045;-62
2023/01/11 05:33:45;;;;;;;3.75;1.77;;;32.00;92.40;;;;;;5015226;28;20060;-62
2023/01/11 05:36:17;;;;;;;3.08;2.08;;;33.10;91.30;;;;;;5014709;28;20026;-63
2023/01/11 05:38:46;;;;;;;8.15;3.47;;;34.20;91.30;;;;;;5016298;28;20454;-61
2023/01/11 05:41:13;;;;;;;6.18;3.58;;;34.20;90.20;;;;;;5016502;28;20040;-66
2023/01/11 05:46:28;;;;;;;5.15;2.22;;;34.10;88.70;;;;;;5014880;28;20613;-65
2023/01/11 05:48:55;;;;;;;3.15;1.60;;;34.30;88.10;;;;;;5018561;28;20080;-74
2023/01/11 05:51:22;;;;;;;4.85;2.15;;;34.90;88.40;;;;;;5024638;28;20127;-72
2023/01/11 05:53:49;;;;;;;4.45;1.92;;;34.80;86.30;;;;;;5017967;28;20021;-62
2023/01/11 05:56:16;;;;;;;4.15;1.85;;;34.90;87.30;;;;;;5024324;28;20433;-71
2023/01/11 05:58:46;;;;;;;4.05;1.73;;;35.40;87.60;;;;;;5023439;28;20029;-65
2023/01/11 06:01:13;;;;;;;4.57;2.08;;;35.00;87.30;;;;;;5018143;28;20199;-60
2023/01/11 06:03:40;;;;;;;3.80;2.00;;;34.20;87.10;;;;;;5016510;28;20033;-65
2023/01/11 06:06:07;;;;;;;4.35;1.98;;;33.60;88.80;;;;;;5022044;28;20152;-62
2023/01/11 06:08:34;;;;;;;5.93;3.40;;;33.40;89.10;;;;;;5024477;28;20040;-72
2023/01/11 06:11:01;;;;;;;5.57;1.90;;;32.50;90.10;;;;;;5022224;28;20128;-62
2023/01/11 06:13:29;;;;;;;5.60;3.60;;;32.20;90.30;;;;;;5025338;28;20056;-62
2023/01/11 06:16:01;;;;;;;5.75;2.15;;;32.20;91.00;;;;;;5024065;28;20488;-63
2023/01/11 06:18:30;;;;;;;2.80;1.92;;;32.20;90.70;;;;;;5023417;28;20021;-61
2023/01/11 06:20:57;;;;;;;5.93;2.58;;;32.00;90.80;;;;;;5023238;28;20018;-60
2023/01/11 06:23:26;;;;;;;4.30;2.28;;;31.80;90.50;;;;;;5023652;28;20025;-63
2023/01/11 06:25:53;;;;;;;4.78;2.13;;;33.10;90.10;;;;;;5025267;28;20075;-66
2023/01/11 06:28:20;;;;;;;4.13;2.10;;;33.90;89.40;;;;;;5024073;28;20070;-74
2023/01/11 06:30:54;;;;;;;3.42;2.08;;;34.80;88.90;;;;;;5023073;28;20041;-65
2023/01/11 06:33:23;;;;;;;3.38;1.88;;;34.60;87.00;;;;;;5019453;28;20025;-64
2023/01/11 06:35:51;;;;;;;4.13;2.00;;;34.90;86.40;;;;;;5022693;28;20058;-59
2023/01/11 06:38:20;;;;;;;2.35;2.00;;;35.30;85.10;;;;;;5023748;28;20506;-70
2023/01/11 06:40:56;;;;;;;5.80;2.40;;;35.60;85.10;;;;;;5023545;28;20200;-59
2023/01/11 06:43:24;;;;;;;3.72;2.20;;;36.30;85.40;;;;;;5020789;28;20035;-64
2023/01/11 06:45:51;;;;;;;4.75;1.90;;;36.00;83.60;;;;;;5021079;28;20037;-60
2023/01/11 06:48:20;;;;;;;6.43;4.75;;;35.30;83.90;;;;;;5019601;28;20026;-67
2023/01/11 06:50:48;;;;;;;5.28;3.70;;;34.70;84.50;;;;;;5021700;28;20330;-71
2023/01/11 06:53:15;;;;;;;7.13;2.53;;;34.00;86.60;;;;;;5024241;28;20112;-60
2023/01/11 06:55:42;;;;;;;4.53;2.38;;;32.90;88.50;;;;;;5024781;28;20025;-72
2023/01/11 06:58:09;;;;;;;6.32;2.58;;;32.30;89.40;;;;;;5023525;28;20029;-61
2023/01/11 07:00:36;;;;;;;3.53;2.22;;;31.80;90.10;;;;;;5021733;28;20022;-66
2023/01/11 07:03:04;;;;;;;3.75;2.53;;;31.10;90.40;;;;;;5022481;28;20021;-64
2023/01/11 07:05:35;;;;;;;3.00;2.50;;;30.50;91.20;;;;;;5023747;28;20032;-65
2023/01/11 07:08:02;;;;;;;4.03;2.67;;;30.10;91.40;;;;;;5022537;28;20317;-66
2023/01/11 07:10:30;;;;;;;4.50;2.42;;;29.80;91.80;;;;;;5023918;28;20083;-61
2023/01/11 07:12:57;;;;;;;4.35;2.42;;;30.70;91.40;;;;;;5024157;28;20021;-61
2023/01/11 07:15:23;;;;;;;5.20;2.83;;;31.60;90.60;;;;;;5021104;28;20041;-63
2023/01/11 07:18:00;;;;;;;5.13;2.42;;;32.30;89.20;;;;;;5017347;28;20037;-61
2023/01/11 07:20:27;;;;;;;6.47;2.30;;;32.00;90.40;;;;;;5018351;28;20029;-64
2023/01/11 07:22:59;;;;;;;4.13;2.65;;;31.70;90.30;;;;;;5021103;28;20438;-64
2023/01/11 07:25:27;;;;;;;4.40;2.45;;;32.10;90.10;;;;;;5019351;28;20022;-62
2023/01/11 07:28:06;;;;;;;4.25;2.28;;;33.00;88.50;;;;;;5018698;28;20479;-59
2023/01/11 07:30:35;;;;;;;4.45;2.03;;;33.60;88.10;;;;;;5019371;28;20488;-72
2023/01/11 07:33:05;;;;;;;4.15;1.67;;;34.10;86.50;;;;;;5021763;28;20079;-61
2023/01/11 07:35:32;;;;;;;3.28;2.13;;;34.50;85.70;;;;;;5023132;28;20049;-69
2023/01/11 07:37:59;;;;;;;4.68;2.17;;;34.10;85.60;;;;;;5023830;28;20029;-70
2023/01/11 07:40:26;;;;;;;3.40;2.08;;;33.10;86.90;;;;;;5023979;28;20461;-70
2023/01/11 07:45:44;;;;;;;4.10;2.20;;;31.20;90.90;;;;;;5020960;28;20036;-68
2023/01/11 07:48:11;;;;;;;3.53;2.13;;;31.40;90.20;;;;;;5019473;28;20034;-68
2023/01/11 07:50:39;;;;;;;4.45;2.15;;;32.10;90.00;;;;;;5022547;28;20032;-66
2023/01/11 07:53:08;;;;;;;3.72;2.13;;;32.70;89.00;;;;;;5019241;28;20029;-73
2023/01/11 07:55:37;;;;;;;5.60;2.40;;;33.30;87.00;;;;;;5012384;28;20046;-64
2023/01/11 07:58:05;;;;;;;4.82;2.30;;;33.20;86.70;;;;;;5010861;28;20394;-61
2023/01/11 08:00:32;;;;;;;3.60;2.35;;;32.50;88.50;;;;;;5008425;28;20487;-61
2023/01/11 08:03:00;;;;;;;5.90;2.30;;;32.50;88.80;;;;;;5017093;28;20068;-61
2023/01/11 08:05:28;;;;;;;3.58;2.20;;;32.80;88.20;;;;;;5010222;28;20125;-73
2023/01/11 08:07:55;;;;;;;3.17;2.55;;;32.80;87.20;;;;;;5016219;28;20121;-61
2023/01/11 08:10:22;;;;;;;3.65;2.00;;;32.50;88.60;;;;;;5013747;28;20172;-61
2023/01/11 08:15:35;;;;;;;5.63;3.03;;;30.80;90.40;;;;;;5015195;28;20072;-66
2023/01/11 08:18:04;;;;;;;7.50;2.30;;;30.00;90.70;;;;;;5021410;28;20043;-62
2023/01/11 08:20:31;;;;;;;5.85;3.13;;;29.30;91.40;;;;;;5015399;28;20392;-69
2023/01/11 08:23:03;;;;;;;5.32;2.72;;;28.50;92.80;;;;;;5018602;28;20036;-75
2023/01/11 08:25:31;;;;;;;7.30;2.47;;;28.00;93.10;;;;;;5010255;28;20495;-61
2023/01/11 08:28:03;;;;;;;2.97;2.45;;;27.70;93.00;;;;;;5009156;28;20057;-68
2023/01/11 08:30:30;;;;;;;5.00;2.25;;;27.10;94.10;;;;;;5005941;28;20456;-68
2023/01/11 08:32:59;;;;;;;5.63;2.72;;;26.80;94.40;;;;;;5013183;28;20034;-63
2023/01/11 08:35:26;;;;;;;2.65;2.08;;;26.50;96.10;;;;;;5008615;28;20025;-68
2023/01/11 08:37:53;;;;;;;6.45;2.60;;;26.30;95.40;;;;;;5020571;28;20045;-71
2023/01/11 08:40:20;;;;;;;5.97;2.60;;;26.10;95.60;;;;;;5011285;28;20058;-62
2023/01/11 08:42:47;;;;;;;4.57;2.30;;;26.00;96.10;;;;;;5010639;28;20037;-69
2023/01/11 08:45:14;;;;;;;4.88;2.80;;;25.80;96.80;;;;;;5018879;28;20033;-64
2023/01/11 08:47:40;;;;;;;3.78;2.45;;;25.60;97.00;;;;;;5011200;28;20029;-68
2023/01/11 08:50:08;;;;;;;6.10;2.60;;;25.50;97.50;;;;;;5020365;28;20116;-70
2023/01/11 08:52:35;;;;;;;5.95;2.58;;;25.40;98.00;;;;;;5019805;28;20026;-62
2023/01/11 08:55:02;;;;;;;5.47;2.65;;;25.20;99.40;;;;;;5013011;28;20336;-61
2023/01/11 08:57:29;;;;;;;6.40;2.42;;;25.00;99.90;;;;;;5010125;28;20029;-60
2023/01/11 08:59:56;;;;;;;5.40;2.60;;;24.70;99.90;;;;;;5014943;28;20028;-62
2023/01/11 09:02:23;;;;;;;4.20;2.50;;;24.60;99.90;;;;;;5011648;28;20021;-62
2023/01/11 09:04:50;;;;;;;4.18;2.28;;;24.50;99.90;;;;;;5012655;28;20024;-70
2023/01/11 09:07:17;;;;;;;3.65;2.15;;;24.40;99.90;;;;;;5017940;28;20040;-61
2023/01/11 09:09:43;;;;;;;5.25;2.58;;;24.30;99.90;;;;;;5009335;28;20484;-62
2023/01/11 09:12:10;;;;;;;9.32;3.00;;;24.40;99.90;;;;;;5013384;28;20034;-62
2023/01/11 09:14:37;;;;;;;5.00;2.45;;;24.30;99.90;;;;;;5007881;28;20026;-61
2023/01/11 09:17:04;;;;;;;4.85;2.67;;;24.10;99.90;;;;;;5013320;28;20017;-67
2023/01/11 09:19:32;;;;;;;3.63;1.95;;;24.00;99.90;;;;;;5012993;28;20059;-63
2023/01/11 09:22:01;;;;;;;6.20;2.70;;;23.90;99.90;;;;;;5015656;28;20083;-67
2023/01/11 09:24:28;;;;;;;5.30;2.67;;;23.90;99.90;;;;;;5018363;28;20447;-63
2023/01/11 09:26:59;;;;;;;6.28;2.50;;;23.80;99.90;;;;;;5018235;28;20034;-62
2023/01/11 09:29:26;;;;;;;7.53;2.53;;;23.80;99.90;;;;;;5018269;28;20697;-62
2023/01/11 09:31:53;;;;;;;7.88;3.15;;;23.80;99.90;;;;;;5008782;28;20029;-68
2023/01/11 09:34:20;;;;;;;8.10;3.63;;;23.70;99.90;;;;;;5006080;28;20026;-60
2023/01/11 09:36:47;;;;;;;5.22;2.90;;;23.80;99.90;;;;;;5021346;28;20025;-59
2023/01/11 09:39:17;;;;;;;4.22;2.50;;;23.70;99.90;;;;;;5020971;28;20523;-65
2023/01/11 09:42:11;;;;;;;5.63;2.83;;;23.60;99.90;;;;;;5014001;28;20524;-65
2023/01/11 09:44:49;;;;;;;4.43;2.47;;;23.70;99.90;;;;;;5009749;28;20124;-60
2023/01/11 09:47:35;;;;;;;5.47;2.20;;;23.70;99.90;;;;;;5017482;28;20041;-68
2023/01/11 09:50:09;;;;;;;5.32;2.58;;;23.50;99.90;;;;;;5011858;28;20497;-69
2023/01/11 09:52:43;;;;;;;5.00;2.30;;;23.60;99.90;;;;;;5013140;28;20029;-62
2023/01/11 09:55:22;;;;;;;5.25;2.17;;;23.60;99.90;;;;;;5019321;28;20649;-64
2023/01/11 09:58:01;;;;;;;4.43;2.28;;;23.60;99.90;;;;;;5006760;28;20026;-70
2023/01/11 10:00:35;;;;;;;3.28;2.72;;;23.50;99.90;;;;;;5004641;28;20026;-63
2023/01/11 10:03:23;;;;;;;5.20;2.50;;;23.50;99.90;;;;;;5006880;28;20492;-65
2023/01/11 10:05:55;;;;;;;3.28;2.38;;;23.50;99.90;;;;;;5007242;28;20142;-61
2023/01/11 10:08:41;;;;;;;4.43;2.55;;;23.50;99.90;;;;;;5012386;28;20136;-63
2023/01/11 10:11:40;;;;;;;4.47;2.95;;;23.50;99.90;;;;;;5014603;28;20517;-61
2023/01/11 10:14:07;;;;;;;3.78;2.13;;;23.50;99.90;;;;;;5006527;28;20026;-69
2023/01/11 10:16:43;;;;;;;5.85;2.63;;;23.40;99.90;;;;;;5015354;28;20033;-61
2023/01/11 10:19:48;;;;;;;5.60;3.03;;;23.40;99.90;;;;;;5020891;28;20277;-64
2023/01/11 10:22:30;;;;;;;5.63;2.50;;;23.40;99.90;;;;;;5012892;28;20047;-60
2023/01/11 10:25:09;;;;;;;4.32;2.58;;;23.30;99.90;;;;;;5014869;28;20109;-61
2023/01/11 10:27:41;;;;;;;5.35;2.55;;;23.30;99.90;;;;;;5012709;28;20435;-68
2023/01/11 10:39:02;;;;;;;5.30;2.65;;;23.30;99.90;;;;;;5008903;28;20351;-67
2023/01/11 10:41:39;;;;;;;8.05;2.65;;;23.30;99.90;;;;;;5008525;28;20021;-66
2023/01/11 10:44:23;;;;;;;4.35;2.60;;;23.40;99.90;;;;;;5018638;28;20050;-61
2023/01/11 10:46:53;;;;;;;8.00;2.70;;;23.30;99.90;;;;;;5013351;28;20060;-69
2023/01/11 10:49:38;;;;;;;6.53;3.05;;;23.30;99.90;;;;;;5013635;28;20269;-64
2023/01/11 10:52:33;;;;;;;6.85;3.10;;;23.30;99.90;;;;;;5017584;28;20033;-65
2023/01/11 10:55:12;;;;;;;7.40;2.97;;;23.30;99.90;;;;;;5014429;28;20219;-61
2023/01/11 10:57:39;;;;;;;4.97;2.58;;;23.30;99.90;;;;;;5015463;28;20425;-64
2023/01/11 11:00:15;;;;;;;5.70;2.38;;;23.30;99.90;;;;;;5015079;28;20105;-61
2023/01/11 11:03:03;;;;;;;4.57;2.58;;;23.30;99.90;;;;;;5013872;28;20022;-59
2023/01/11 11:05:35;;;;;;;4.47;2.30;;;23.40;99.90;;;;;;5016655;28;20594;-60
2023/01/11 11:08:25;;;;;;;5.90;3.20;;;23.30;99.90;;;;;;5015791;28;20093;-65
2023/01/11 11:11:01;;;;;;;5.00;2.55;;;23.20;99.90;;;;;;5019765;28;20036;-66
2023/01/11 11:13:46;;;;;;;4.18;2.42;;;23.10;99.90;;;;;;5012177;28;20112;-60
2023/01/11 11:16:19;;;;;;;4.75;2.10;;;23.10;99.90;;;;;;5015284;28;20496;-61
2023/01/11 11:18:46;;;;;;;4.45;2.28;;;22.90;99.90;;;;;;5019040;28;20044;-65
2023/01/11 11:21:37;;;;;;;6.68;2.42;;;22.90;99.90;;;;;;5015705;28;20030;-67
2023/01/11 11:24:16;;;;;;;5.45;2.20;;;23.00;99.90;;;;;;5014276;28;20068;-64
2023/01/11 11:26:48;;;;;;;6.80;2.67;;;22.90;99.90;;;;;;5014667;28;20128;-64
2023/01/11 11:29:22;;;;;;;5.00;2.05;;;22.80;99.90;;;;;;5017044;28;20021;-68
2023/01/11 11:31:50;;;;;;;3.90;2.30;;;22.90;99.90;;;;;;5017508;28;20116;-61
2023/01/11 11:34:20;;;;;;;6.70;2.28;;;22.90;99.90;;;;;;5016602;28;20030;-61
2023/01/11 11:36:51;;;;;;;7.28;2.67;;;22.90;99.90;;;;;;5016688;28;20022;-61
2023/01/11 11:39:30;;;;;;;3.67;2.10;;;22.70;99.90;;;;;;5016048;28;20033;-67
2023/01/11 11:42:05;;;;;;;5.38;3.00;;;22.70;99.90;;;;;;5019526;28;20053;-60
2023/01/11 11:44:32;;;;;;;6.07;2.65;;;22.60;99.90;;;;;;5018296;28;20025;-60
2023/01/11 11:47:04;;;;;;;6.18;2.75;;;22.60;99.90;;;;;;5009603;28;20037;-65
2023/01/11 11:49:34;;;;;;;6.05;3.03;;;22.70;99.90;;;;;;5009982;28;20093;-66
2023/01/11 11:52:03;;;;;;;4.88;2.60;;;22.70;99.90;;;;;;5015780;28;20330;-61
2023/01/11 11:54:54;;;;;;;3.65;1.95;;;22.70;99.90;;;;;;5012603;28;20037;-59
2023/01/11 11:57:27;;;;;;;6.82;2.72;;;22.70;99.90;;;;;;5015028;28;20035;-66
2023/01/11 12:00:06;;;;;;;6.07;2.30;;;22.60;99.90;;;;;;5009363;28;20029;-61
2023/01/11 12:02:35;;;;;;;6.25;2.22;;;22.50;99.90;;;;;;5013823;28;20040;-64
2023/01/11 12:05:09;;;;;;;6.28;2.33;;;22.50;99.90;;;;;;5017105;28;20033;-61
2023/01/11 12:07:42;;;;;;;8.80;2.72;;;22.50;99.90;;;;;;5014399;28;20033;-60
2023/01/11 12:10:17;;;;;;;4.60;2.20;;;22.40;99.90;;;;;;5012393;28;20064;-60
2023/01/11 12:13:04;;;;;;;5.97;2.70;;;22.40;99.90;;;;;;5015882;28;20029;-59
2023/01/11 12:15:34;;;;;;;5.63;2.60;;;22.40;99.90;;;;;;5014036;28;20025;-61
2023/01/11 12:18:27;;;;;;;9.10;2.25;;;22.40;99.90;;;;;;5013466;28;20053;-61
2023/01/11 12:20:54;;;;;;;5.95;2.45;;;22.40;99.90;;;;;;5015783;28;20119;-67
2023/01/11 12:23:28;;;;;;;5.40;2.25;;;22.40;99.90;;;;;;5015355;28;20026;-66
2023/01/11 12:26:07;;;;;;;7.70;2.42;;;22.30;99.90;;;;;;5021597;28;20029;-66
2023/01/11 12:28:59;;;;;;;5.97;3.10;;;22.30;99.90;;;;;;5014792;28;20052;-66
2023/01/11 12:31:35;;;;;;;5.80;2.40;;;22.40;99.90;;;;;;5012973;28;20049;-60
2023/01/11 12:34:05;;;;;;;7.05;2.30;;;22.40;99.90;;;;;;5013401;28;20021;-66
2023/01/11 12:37:13;;;;;;;5.20;2.55;;;22.40;99.90;;;;;;5011473;28;20038;-59
2023/01/11 12:39:55;;;;;;;6.63;2.60;;;22.40;99.90;;;;;;5013787;28;20152;-60
2023/01/11 12:42:28;;;;;;;5.90;2.30;;;22.40;99.90;;;;;;5007411;28;20026;-64
2023/01/11 12:44:54;;;;;;;6.22;2.47;;;22.40;99.90;;;;;;5012877;28;20026;-66
2023/01/11 12:47:24;;;;;;;8.88;2.92;;;22.40;99.90;;;;;;5013251;28;20109;-60
2023/01/11 12:50:25;;;;;;;9.32;3.15;;;22.30;99.90;;;;;;5015396;28;20021;-60
2023/01/11 12:53:12;;;;;;;5.88;2.30;;;22.30;99.90;;;;;;5007587;28;20417;-65
2023/01/11 12:55:45;;;;;;;4.80;2.20;;;22.50;99.90;;;;;;5011004;28;20048;-67
2023/01/11 12:58:43;;;;;;;5.35;2.00;;;22.40;99.90;;;;;;5016744;28;20109;-60
2023/01/11 13:01:37;;;;;;;8.05;2.22;;;22.50;99.90;;;;;;4992315;28;20034;-66
2023/01/11 13:04:27;;;;;;;4.00;1.90;;;22.50;99.90;;;;;;4988974;28;20073;-67
2023/01/11 13:07:06;;;;;;;6.32;2.55;;;22.50;99.90;;;;;;4990443;28;20149;-61
2023/01/11 13:09:36;;;;;;;7.90;3.10;;;22.30;99.90;;;;;;4996696;28;20041;-60
2023/01/11 13:12:17;;;;;;;6.53;2.40;;;22.30;99.90;;;;;;4988635;28;20050;-65
2023/01/11 13:15:02;;;;;;;7.32;2.88;;;22.30;99.90;;;;;;4990170;28;20056;-67
2023/01/11 13:17:56;;;;;;;6.70;2.35;;;22.20;99.90;;;;;;4992147;28;20146;-67
2023/01/11 13:20:55;;;;;;;8.65;2.72;;;22.30;99.90;;;;;;4988946;28;20034;-66
2023/01/11 13:23:22;;;;;;;7.65;2.97;;;22.30;99.90;;;;;;4912499;29;20044;-60
2023/01/11 13:25:52;;;;;;;9.10;2.65;;;22.20;99.90;;;;;;4913095;29;20067;-60
2023/01/11 13:28:39;;;;;;;7.97;2.28;;;22.20;99.90;;;;;;4922818;29;20487;-67
2023/01/11 13:31:11;;;;;;;8.85;2.58;;;22.30;99.90;;;;;;5015033;23;20236;-67
2023/01/11 13:33:43;;;;;;;9.00;2.75;;;22.30;99.90;;;;;;5027457;28;20117;-60
2023/01/11 13:36:20;;;;;;;6.85;2.83;;;22.30;99.90;;;;;;5028152;28;20052;-66
2023/01/11 13:39:02;;;;;;;6.25;2.63;;;22.20;99.90;;;;;;5028666;28;20025;-59
2023/01/11 13:41:40;;;;;;;6.40;2.50;;;22.10;99.90;;;;;;5028535;28;20450;-61
2023/01/11 13:44:32;;;;;;;6.32;2.10;;;22.10;99.90;;;;;;5027542;28;20112;-66
2023/01/11 13:47:11;;;;;;;5.82;2.45;;;22.10;99.90;;;;;;5028780;28;20453;-66